sensor_id;sensor_type;location;lat;lon;timestamp;P1;durP1;ratioP1;P2;durP2;ratioP2
26319;SDS011;14024;52.226;5.200;2024-03-02T00:00:00;4.88;;;2.15;;
26319;SDS011;14024;52.226;5.200;2024-03-02T00:02:27;3.80;;;1.90;;
26319;SDS011;14024;52.226;5.200;2024-03-02T00:04:52;5.05;;;2.22;;
26319;SDS011;14024;52.226;5.200;2024-03-02T00:07:17;4.43;;;2.10;;
26319;SDS011;14024;52.226;5.200;2024-03-02T00:09:43;3.83;;;2.00;;
26319;SDS011;14024;52.226;5.200;2024-03-02T00:12:10;4.18;;;2.20;;
26319;SDS011;14024;52.226;5.200;2024-03-02T00:14:40;3.47;;;2.17;;
26319;SDS011;14024;52.226;5.200;2024-03-02T00:17:07;3.28;;;2.03;;
26319;SDS011;14024;52.226;5.200;2024-03-02T00:19:44;5.00;;;1.90;;
26319;SDS011;14024;52.226;5.200;2024-03-02T00:22:09;6.28;;;2.15;;
26319;SDS011;14024;52.226;5.200;2024-03-02T00:24:35;4.32;;;2.55;;
26319;SDS011;14024;52.226;5.200;2024-03-02T00:27:01;4.45;;;2.40;;
26319;SDS011;14024;52.226;5.200;2024-03-02T00:29:28;6.05;;;2.40;;
26319;SDS011;14024;52.226;5.200;2024-03-02T00:31:54;4.82;;;2.55;;
26319;SDS011;14024;52.226;5.200;2024-03-02T00:34:20;4.05;;;1.85;;
26319;SDS011;14024;52.226;5.200;2024-03-02T00:36:47;1.55;;;1.00;;
26319;SDS011;14024;52.226;5.200;2024-03-02T00:39:13;1.70;;;1.10;;
26319;SDS011;14024;52.226;5.200;2024-03-02T00:41:40;1.20;;;1.10;;
26319;SDS011;14024;52.226;5.200;2024-03-02T00:44:07;3.28;;;1.48;;
26319;SDS011;14024;52.226;5.200;2024-03-02T00:46:37;1.38;;;0.93;;
26319;SDS011;14024;52.226;5.200;2024-03-02T00:51:35;0.80;;;0.80;;
26319;SDS011;14024;52.226;5.200;2024-03-02T00:54:05;1.35;;;1.00;;
26319;SDS011;14024;52.226;5.200;2024-03-02T00:56:32;1.98;;;0.98;;
26319;SDS011;14024;52.226;5.200;2024-03-02T00:58:59;2.40;;;0.80;;
26319;SDS011;14024;52.226;5.200;2024-03-02T01:01:25;1.15;;;0.98;;
26319;SDS011;14024;52.226;5.200;2024-03-02T01:03:50;1.52;;;0.80;;
26319;SDS011;14024;52.226;5.200;2024-03-02T01:06:15;0.73;;;0.73;;
26319;SDS011;14024;52.226;5.200;2024-03-02T01:08:42;1.63;;;0.85;;
26319;SDS011;14024;52.226;5.200;2024-03-02T01:11:08;0.90;;;0.70;;
26319;SDS011;14024;52.226;5.200;2024-03-02T01:13:33;0.73;;;0.60;;
26319;SDS011;14024;52.226;5.200;2024-03-02T01:15:59;2.55;;;0.98;;
26319;SDS011;14024;52.226;5.200;2024-03-02T01:18:25;1.80;;;0.70;;
26319;SDS011;14024;52.226;5.200;2024-03-02T01:20:50;1.48;;;0.80;;
26319;SDS011;14024;52.226;5.200;2024-03-02T01:23:21;1.17;;;0.60;;
26319;SDS011;14024;52.226;5.200;2024-03-02T01:25:47;2.65;;;0.88;;
26319;SDS011;14024;52.226;5.200;2024-03-02T01:28:13;1.55;;;0.80;;
26319;SDS011;14024;52.226;5.200;2024-03-02T01:30:39;0.82;;;0.80;;
26319;SDS011;14024;52.226;5.200;2024-03-02T01:33:04;2.55;;;0.95;;
26319;SDS011;14024;52.226;5.200;2024-03-02T01:35:30;3.00;;;0.90;;
26319;SDS011;14024;52.226;5.200;2024-03-02T01:37:56;1.15;;;0.70;;
26319;SDS011;14024;52.226;5.200;2024-03-02T01:40:21;1.98;;;0.80;;
26319;SDS011;14024;52.226;5.200;2024-03-02T01:42:51;2.53;;;1.15;;
26319;SDS011;14024;52.226;5.200;2024-03-02T01:45:17;2.05;;;0.90;;
26319;SDS011;14024;52.226;5.200;2024-03-02T01:47:42;1.00;;;0.90;;
26319;SDS011;14024;52.226;5.200;2024-03-02T01:50:07;1.13;;;1.00;;
26319;SDS011;14024;52.226;5.200;2024-03-02T01:52:34;1.02;;;0.93;;
26319;SDS011;14024;52.226;5.200;2024-03-02T01:54:59;1.00;;;0.93;;
26319;SDS011;14024;52.226;5.200;2024-03-02T01:57:24;1.00;;;0.90;;
26319;SDS011;14024;52.226;5.200;2024-03-02T01:59:50;1.67;;;1.00;;
26319;SDS011;14024;52.226;5.200;2024-03-02T02:02:15;0.82;;;0.80;;
26319;SDS011;14024;52.226;5.200;2024-03-02T02:04:41;1.38;;;0.90;;
26319;SDS011;14024;52.226;5.200;2024-03-02T02:07:07;2.45;;;1.17;;
26319;SDS011;14024;52.226;5.200;2024-03-02T02:09:32;1.52;;;1.17;;
26319;SDS011;14024;52.226;5.200;2024-03-02T02:11:58;2.08;;;1.25;;
26319;SDS011;14024;52.226;5.200;2024-03-02T02:14:24;1.13;;;0.90;;
26319;SDS011;14024;52.226;5.200;2024-03-02T02:16:49;1.20;;;1.10;;
26319;SDS011;14024;52.226;5.200;2024-03-02T02:19:15;1.77;;;1.08;;
26319;SDS011;14024;52.226;5.200;2024-03-02T02:21:43;1.30;;;1.10;;
26319;SDS011;14024;52.226;5.200;2024-03-02T02:24:08;0.98;;;0.90;;
26319;SDS011;14024;52.226;5.200;2024-03-02T02:26:34;1.58;;;0.93;;
26319;SDS011;14024;52.226;5.200;2024-03-02T02:28:59;1.73;;;1.05;;
26319;SDS011;14024;52.226;5.200;2024-03-02T02:31:24;2.50;;;1.17;;
26319;SDS011;14024;52.226;5.200;2024-03-02T02:33:50;2.00;;;1.10;;
26319;SDS011;14024;52.226;5.200;2024-03-02T02:36:15;1.92;;;1.00;;
26319;SDS011;14024;52.226;5.200;2024-03-02T02:38:42;1.13;;;0.90;;
26319;SDS011;14024;52.226;5.200;2024-03-02T02:41:10;2.17;;;1.20;;
26319;SDS011;14024;52.226;5.200;2024-03-02T02:43:36;2.55;;;1.30;;
26319;SDS011;14024;52.226;5.200;2024-03-02T02:46:01;1.02;;;0.93;;
26319;SDS011;14024;52.226;5.200;2024-03-02T02:48:26;1.60;;;1.10;;
26319;SDS011;14024;52.226;5.200;2024-03-02T02:50:52;1.35;;;0.98;;
26319;SDS011;14024;52.226;5.200;2024-03-02T02:53:17;1.10;;;1.00;;
26319;SDS011;14024;52.226;5.200;2024-03-02T02:55:42;1.65;;;1.00;;
26319;SDS011;14024;52.226;5.200;2024-03-02T02:58:08;1.40;;;1.30;;
26319;SDS011;14024;52.226;5.200;2024-03-02T03:00:34;1.55;;;1.20;;
26319;SDS011;14024;52.226;5.200;2024-03-02T03:03:00;3.22;;;1.35;;
26319;SDS011;14024;52.226;5.200;2024-03-02T03:05:25;3.15;;;1.30;;
26319;SDS011;14024;52.226;5.200;2024-03-02T03:07:51;1.83;;;1.30;;
26319;SDS011;14024;52.226;5.200;2024-03-02T03:10:16;1.30;;;0.95;;
26319;SDS011;14024;52.226;5.200;2024-03-02T03:12:42;3.17;;;1.25;;
26319;SDS011;14024;52.226;5.200;2024-03-02T03:15:09;1.40;;;1.13;;
26319;SDS011;14024;52.226;5.200;2024-03-02T03:17:37;1.92;;;1.20;;
26319;SDS011;14024;52.226;5.200;2024-03-02T03:20:03;1.80;;;1.13;;
26319;SDS011;14024;52.226;5.200;2024-03-02T03:22:29;2.03;;;1.05;;
26319;SDS011;14024;52.226;5.200;2024-03-02T03:24:55;4.05;;;1.10;;
26319;SDS011;14024;52.226;5.200;2024-03-02T03:27:20;1.35;;;0.95;;
26319;SDS011;14024;52.226;5.200;2024-03-02T03:29:46;1.40;;;1.10;;
26319;SDS011;14024;52.226;5.200;2024-03-02T03:32:11;1.02;;;1.00;;
26319;SDS011;14024;52.226;5.200;2024-03-02T03:34:37;1.92;;;1.02;;
26319;SDS011;14024;52.226;5.200;2024-03-02T03:37:02;2.10;;;1.00;;
26319;SDS011;14024;52.226;5.200;2024-03-02T03:39:28;1.25;;;0.90;;
26319;SDS011;14024;52.226;5.200;2024-03-02T03:41:53;2.28;;;1.10;;
26319;SDS011;14024;52.226;5.200;2024-03-02T03:44:19;1.67;;;1.00;;
26319;SDS011;14024;52.226;5.200;2024-03-02T03:46:44;2.35;;;1.00;;
26319;SDS011;14024;52.226;5.200;2024-03-02T03:49:10;2.13;;;1.00;;
26319;SDS011;14024;52.226;5.200;2024-03-02T03:51:35;1.90;;;0.98;;
26319;SDS011;14024;52.226;5.200;2024-03-02T03:54:00;1.63;;;0.98;;
26319;SDS011;14024;52.226;5.200;2024-03-02T03:56:26;1.83;;;0.85;;
26319;SDS011;14024;52.226;5.200;2024-03-02T03:58:52;4.35;;;1.05;;
26319;SDS011;14024;52.226;5.200;2024-03-02T04:01:17;1.48;;;0.90;;
26319;SDS011;14024;52.226;5.200;2024-03-02T04:03:43;1.33;;;0.80;;
26319;SDS011;14024;52.226;5.200;2024-03-02T04:06:08;1.55;;;0.77;;
26319;SDS011;14024;52.226;5.200;2024-03-02T04:08:33;4.70;;;1.15;;
26319;SDS011;14024;52.226;5.200;2024-03-02T04:10:59;0.80;;;0.80;;
26319;SDS011;14024;52.226;5.200;2024-03-02T04:13:24;2.20;;;0.80;;
26319;SDS011;14024;52.226;5.200;2024-03-02T04:15:49;1.13;;;0.70;;
26319;SDS011;14024;52.226;5.200;2024-03-02T04:18:15;1.33;;;0.90;;
26319;SDS011;14024;52.226;5.200;2024-03-02T04:20:41;2.13;;;0.80;;
26319;SDS011;14024;52.226;5.200;2024-03-02T04:23:06;5.00;;;1.10;;
26319;SDS011;14024;52.226;5.200;2024-03-02T04:25:32;1.15;;;0.85;;
26319;SDS011;14024;52.226;5.200;2024-03-02T04:27:57;2.47;;;0.88;;
26319;SDS011;14024;52.226;5.200;2024-03-02T04:30:23;3.80;;;0.82;;
26319;SDS011;14024;52.226;5.200;2024-03-02T04:32:48;1.77;;;0.80;;
26319;SDS011;14024;52.226;5.200;2024-03-02T04:35:14;1.88;;;0.85;;
26319;SDS011;14024;52.226;5.200;2024-03-02T04:37:39;2.10;;;0.88;;
26319;SDS011;14024;52.226;5.200;2024-03-02T04:40:05;2.85;;;1.05;;
26319;SDS011;14024;52.226;5.200;2024-03-02T04:42:33;1.27;;;1.13;;
26319;SDS011;14024;52.226;5.200;2024-03-02T04:44:59;3.22;;;1.00;;
26319;SDS011;14024;52.226;5.200;2024-03-02T04:47:25;2.00;;;1.20;;
26319;SDS011;14024;52.226;5.200;2024-03-02T04:49:50;2.10;;;1.15;;
26319;SDS011;14024;52.226;5.200;2024-03-02T04:52:17;3.63;;;1.17;;
26319;SDS011;14024;52.226;5.200;2024-03-02T04:54:43;1.85;;;1.00;;
26319;SDS011;14024;52.226;5.200;2024-03-02T04:57:27;1.98;;;0.90;;
26319;SDS011;14024;52.226;5.200;2024-03-02T04:59:52;4.13;;;1.02;;
26319;SDS011;14024;52.226;5.200;2024-03-02T05:02:18;0.88;;;0.80;;
26319;SDS011;14024;52.226;5.200;2024-03-02T05:04:43;1.40;;;1.23;;
26319;SDS011;14024;52.226;5.200;2024-03-02T05:07:08;2.08;;;1.20;;
26319;SDS011;14024;52.226;5.200;2024-03-02T05:09:35;0.95;;;0.90;;
26319;SDS011;14024;52.226;5.200;2024-03-02T05:12:00;1.67;;;1.15;;
26319;SDS011;14024;52.226;5.200;2024-03-02T05:14:48;3.72;;;1.30;;
26319;SDS011;14024;52.226;5.200;2024-03-02T05:17:13;1.15;;;0.90;;
26319;SDS011;14024;52.226;5.200;2024-03-02T05:19:38;1.02;;;0.93;;
26319;SDS011;14024;52.226;5.200;2024-03-02T05:22:04;1.50;;;0.90;;
26319;SDS011;14024;52.226;5.200;2024-03-02T05:24:30;1.30;;;1.02;;
26319;SDS011;14024;52.226;5.200;2024-03-02T05:26:56;4.82;;;1.20;;
26319;SDS011;14024;52.226;5.200;2024-03-02T05:29:21;2.08;;;1.00;;
26319;SDS011;14024;52.226;5.200;2024-03-02T05:31:47;2.53;;;1.08;;
26319;SDS011;14024;52.226;5.200;2024-03-02T05:34:12;2.80;;;1.10;;
26319;SDS011;14024;52.226;5.200;2024-03-02T05:36:37;2.72;;;1.00;;
26319;SDS011;14024;52.226;5.200;2024-03-02T05:39:04;4.25;;;1.00;;
26319;SDS011;14024;52.226;5.200;2024-03-02T05:41:31;3.85;;;1.00;;
26319;SDS011;14024;52.226;5.200;2024-03-02T05:43:56;2.30;;;1.10;;
26319;SDS011;14024;52.226;5.200;2024-03-02T05:46:22;1.42;;;0.88;;
26319;SDS011;14024;52.226;5.200;2024-03-02T05:48:47;2.35;;;1.20;;
26319;SDS011;14024;52.226;5.200;2024-03-02T05:51:12;1.15;;;1.00;;
26319;SDS011;14024;52.226;5.200;2024-03-02T05:53:38;3.47;;;0.95;;
26319;SDS011;14024;52.226;5.200;2024-03-02T05:56:04;2.55;;;0.90;;
26319;SDS011;14024;52.226;5.200;2024-03-02T05:58:30;1.08;;;0.90;;
26319;SDS011;14024;52.226;5.200;2024-03-02T06:01:14;2.38;;;0.98;;
26319;SDS011;14024;52.226;5.200;2024-03-02T06:03:39;4.40;;;1.10;;
26319;SDS011;14024;52.226;5.200;2024-03-02T06:06:05;3.60;;;1.02;;
26319;SDS011;14024;52.226;5.200;2024-03-02T06:08:30;1.58;;;1.10;;
26319;SDS011;14024;52.226;5.200;2024-03-02T06:10:56;2.15;;;1.00;;
26319;SDS011;14024;52.226;5.200;2024-03-02T06:13:21;4.75;;;0.90;;
26319;SDS011;14024;52.226;5.200;2024-03-02T06:15:46;2.17;;;1.00;;
26319;SDS011;14024;52.226;5.200;2024-03-02T06:18:12;3.97;;;0.95;;
26319;SDS011;14024;52.226;5.200;2024-03-02T06:20:37;1.73;;;1.10;;
26319;SDS011;14024;52.226;5.200;2024-03-02T06:23:03;4.20;;;1.10;;
26319;SDS011;14024;52.226;5.200;2024-03-02T06:25:29;2.22;;;1.10;;
26319;SDS011;14024;52.226;5.200;2024-03-02T06:27:54;1.77;;;0.77;;
26319;SDS011;14024;52.226;5.200;2024-03-02T06:30:19;3.15;;;1.00;;
26319;SDS011;14024;52.226;5.200;2024-03-02T06:32:46;1.63;;;0.88;;
26319;SDS011;14024;52.226;5.200;2024-03-02T06:35:11;3.38;;;1.00;;
26319;SDS011;14024;52.226;5.200;2024-03-02T06:37:37;1.30;;;0.85;;
26319;SDS011;14024;52.226;5.200;2024-03-02T06:40:04;7.97;;;1.25;;
26319;SDS011;14024;52.226;5.200;2024-03-02T06:42:32;2.83;;;0.98;;
26319;SDS011;14024;52.226;5.200;2024-03-02T06:44:58;1.23;;;0.93;;
26319;SDS011;14024;52.226;5.200;2024-03-02T06:47:24;1.63;;;0.88;;
26319;SDS011;14024;52.226;5.200;2024-03-02T06:49:49;4.55;;;1.10;;
26319;SDS011;14024;52.226;5.200;2024-03-02T06:52:14;3.85;;;1.05;;
26319;SDS011;14024;52.226;5.200;2024-03-02T06:54:40;1.38;;;1.08;;
26319;SDS011;14024;52.226;5.200;2024-03-02T06:57:05;2.38;;;1.15;;
26319;SDS011;14024;52.226;5.200;2024-03-02T06:59:30;4.05;;;1.10;;
26319;SDS011;14024;52.226;5.200;2024-03-02T07:01:55;1.40;;;1.10;;
26319;SDS011;14024;52.226;5.200;2024-03-02T07:04:21;2.47;;;1.10;;
26319;SDS011;14024;52.226;5.200;2024-03-02T07:06:47;2.10;;;1.23;;
26319;SDS011;14024;52.226;5.200;2024-03-02T07:09:12;3.03;;;1.20;;
26319;SDS011;14024;52.226;5.200;2024-03-02T07:11:37;1.75;;;1.05;;
26319;SDS011;14024;52.226;5.200;2024-03-02T07:14:03;1.50;;;0.88;;
26319;SDS011;14024;52.226;5.200;2024-03-02T07:16:28;4.22;;;1.27;;
26319;SDS011;14024;52.226;5.200;2024-03-02T07:18:58;3.28;;;1.60;;
26319;SDS011;14024;52.226;5.200;2024-03-02T07:21:24;2.50;;;1.55;;
26319;SDS011;14024;52.226;5.200;2024-03-02T07:23:50;3.58;;;1.35;;
26319;SDS011;14024;52.226;5.200;2024-03-02T07:26:16;5.55;;;1.48;;
26319;SDS011;14024;52.226;5.200;2024-03-02T07:28:43;1.70;;;1.05;;
26319;SDS011;14024;52.226;5.200;2024-03-02T07:31:09;3.15;;;1.42;;
26319;SDS011;14024;52.226;5.200;2024-03-02T07:33:35;2.22;;;1.20;;
26319;SDS011;14024;52.226;5.200;2024-03-02T07:36:00;2.38;;;1.25;;
26319;SDS011;14024;52.226;5.200;2024-03-02T07:38:27;6.30;;;1.38;;
26319;SDS011;14024;52.226;5.200;2024-03-02T07:40:53;2.33;;;1.30;;
26319;SDS011;14024;52.226;5.200;2024-03-02T07:43:18;7.40;;;1.23;;
26319;SDS011;14024;52.226;5.200;2024-03-02T07:45:44;3.83;;;1.20;;
26319;SDS011;14024;52.226;5.200;2024-03-02T07:48:10;3.63;;;1.08;;
26319;SDS011;14024;52.226;5.200;2024-03-02T07:50:36;4.43;;;1.50;;
26319;SDS011;14024;52.226;5.200;2024-03-02T07:53:02;2.05;;;1.00;;
26319;SDS011;14024;52.226;5.200;2024-03-02T07:55:28;5.30;;;1.40;;
26319;SDS011;14024;52.226;5.200;2024-03-02T07:57:54;5.35;;;1.30;;
26319;SDS011;14024;52.226;5.200;2024-03-02T08:00:21;1.73;;;1.27;;
26319;SDS011;14024;52.226;5.200;2024-03-02T08:02:48;4.35;;;1.30;;
26319;SDS011;14024;52.226;5.200;2024-03-02T08:05:13;3.10;;;1.30;;
26319;SDS011;14024;52.226;5.200;2024-03-02T08:07:39;5.95;;;1.60;;
26319;SDS011;14024;52.226;5.200;2024-03-02T08:10:06;7.03;;;1.83;;
26319;SDS011;14024;52.226;5.200;2024-03-02T08:12:31;3.33;;;1.30;;
26319;SDS011;14024;52.226;5.200;2024-03-02T08:14:57;7.38;;;1.23;;
26319;SDS011;14024;52.226;5.200;2024-03-02T08:17:22;6.78;;;1.70;;
26319;SDS011;14024;52.226;5.200;2024-03-02T08:19:47;3.85;;;1.38;;
26319;SDS011;14024;52.226;5.200;2024-03-02T08:22:14;2.78;;;1.38;;
26319;SDS011;14024;52.226;5.200;2024-03-02T08:24:40;4.93;;;1.48;;
26319;SDS011;14024;52.226;5.200;2024-03-02T08:27:06;3.05;;;1.30;;
26319;SDS011;14024;52.226;5.200;2024-03-02T08:29:31;4.45;;;1.20;;
26319;SDS011;14024;52.226;5.200;2024-03-02T08:31:56;2.92;;;1.25;;
26319;SDS011;14024;52.226;5.200;2024-03-02T08:34:22;5.43;;;1.38;;
26319;SDS011;14024;52.226;5.200;2024-03-02T08:36:47;3.25;;;1.20;;
26319;SDS011;14024;52.226;5.200;2024-03-02T08:39:16;3.03;;;1.30;;
26319;SDS011;14024;52.226;5.200;2024-03-02T08:41:42;1.17;;;0.90;;
26319;SDS011;14024;52.226;5.200;2024-03-02T08:44:09;3.38;;;1.00;;
26319;SDS011;14024;52.226;5.200;2024-03-02T08:46:35;6.15;;;1.17;;
26319;SDS011;14024;52.226;5.200;2024-03-02T08:49:00;2.90;;;1.25;;
26319;SDS011;14024;52.226;5.200;2024-03-02T08:51:26;2.72;;;1.15;;
26319;SDS011;14024;52.226;5.200;2024-03-02T08:53:51;2.15;;;1.02;;
26319;SDS011;14024;52.226;5.200;2024-03-02T08:56:16;5.72;;;1.30;;
26319;SDS011;14024;52.226;5.200;2024-03-02T08:58:42;3.15;;;1.30;;
26319;SDS011;14024;52.226;5.200;2024-03-02T09:01:09;3.97;;;1.20;;
26319;SDS011;14024;52.226;5.200;2024-03-02T09:03:35;7.05;;;1.20;;
26319;SDS011;14024;52.226;5.200;2024-03-02T09:06:00;3.58;;;1.00;;
26319;SDS011;14024;52.226;5.200;2024-03-02T09:08:26;3.17;;;1.35;;
26319;SDS011;14024;52.226;5.200;2024-03-02T09:10:51;3.25;;;1.30;;
26319;SDS011;14024;52.226;5.200;2024-03-02T09:13:17;5.25;;;1.20;;
26319;SDS011;14024;52.226;5.200;2024-03-02T09:15:43;9.60;;;1.45;;
26319;SDS011;14024;52.226;5.200;2024-03-02T09:18:09;9.13;;;1.40;;
26319;SDS011;14024;52.226;5.200;2024-03-02T09:20:34;7.85;;;2.10;;
26319;SDS011;14024;52.226;5.200;2024-03-02T09:23:00;11.32;;;1.42;;
26319;SDS011;14024;52.226;5.200;2024-03-02T09:25:25;6.38;;;1.30;;
26319;SDS011;14024;52.226;5.200;2024-03-02T09:27:50;5.20;;;1.02;;
26319;SDS011;14024;52.226;5.200;2024-03-02T09:30:16;6.63;;;1.23;;
26319;SDS011;14024;52.226;5.200;2024-03-02T09:32:41;5.93;;;1.63;;
26319;SDS011;14024;52.226;5.200;2024-03-02T09:35:07;11.30;;;1.90;;
26319;SDS011;14024;52.226;5.200;2024-03-02T09:37:34;5.43;;;1.20;;
26319;SDS011;14024;52.226;5.200;2024-03-02T09:40:00;20.45;;;1.40;;
26319;SDS011;14024;52.226;5.200;2024-03-02T09:42:25;4.78;;;1.13;;
26319;SDS011;14024;52.226;5.200;2024-03-02T09:44:51;6.53;;;1.35;;
26319;SDS011;14024;52.226;5.200;2024-03-02T09:47:17;10.30;;;1.50;;
26319;SDS011;14024;52.226;5.200;2024-03-02T09:49:42;6.32;;;1.35;;
26319;SDS011;14024;52.226;5.200;2024-03-02T09:52:08;3.33;;;1.40;;
26319;SDS011;14024;52.226;5.200;2024-03-02T09:54:35;6.53;;;1.52;;
26319;SDS011;14024;52.226;5.200;2024-03-02T09:57:01;6.22;;;1.48;;
26319;SDS011;14024;52.226;5.200;2024-03-02T09:59:27;11.63;;;1.70;;
26319;SDS011;14024;52.226;5.200;2024-03-02T10:01:57;7.50;;;1.45;;
26319;SDS011;14024;52.226;5.200;2024-03-02T10:04:25;4.05;;;1.70;;
26319;SDS011;14024;52.226;5.200;2024-03-02T10:06:51;4.55;;;1.35;;
26319;SDS011;14024;52.226;5.200;2024-03-02T10:09:34;5.50;;;1.50;;
26319;SDS011;14024;52.226;5.200;2024-03-02T10:12:06;4.70;;;1.60;;
26319;SDS011;14024;52.226;5.200;2024-03-02T10:14:32;5.70;;;1.38;;
26319;SDS011;14024;52.226;5.200;2024-03-02T10:17:05;7.55;;;1.73;;
26319;SDS011;14024;52.226;5.200;2024-03-02T10:19:32;4.97;;;1.55;;
26319;SDS011;14024;52.226;5.200;2024-03-02T10:21:59;7.38;;;1.50;;
26319;SDS011;14024;52.226;5.200;2024-03-02T10:24:25;7.35;;;1.55;;
26319;SDS011;14024;52.226;5.200;2024-03-02T10:26:51;5.90;;;1.45;;
26319;SDS011;14024;52.226;5.200;2024-03-02T10:29:17;5.72;;;1.70;;
26319;SDS011;14024;52.226;5.200;2024-03-02T10:31:44;7.65;;;1.70;;
26319;SDS011;14024;52.226;5.200;2024-03-02T10:34:11;9.13;;;1.80;;
26319;SDS011;14024;52.226;5.200;2024-03-02T10:36:37;6.85;;;1.77;;
26319;SDS011;14024;52.226;5.200;2024-03-02T10:39:06;10.73;;;2.22;;
26319;SDS011;14024;52.226;5.200;2024-03-02T10:41:33;2.85;;;1.38;;
26319;SDS011;14024;52.226;5.200;2024-03-02T10:44:01;8.38;;;1.30;;
26319;SDS011;14024;52.226;5.200;2024-03-02T10:46:28;6.45;;;1.65;;
26319;SDS011;14024;52.226;5.200;2024-03-02T10:48:55;10.77;;;1.60;;
26319;SDS011;14024;52.226;5.200;2024-03-02T10:51:23;4.43;;;1.23;;
26319;SDS011;14024;52.226;5.200;2024-03-02T10:53:54;8.20;;;1.27;;
26319;SDS011;14024;52.226;5.200;2024-03-02T10:56:27;16.00;;;1.98;;
26319;SDS011;14024;52.226;5.200;2024-03-02T10:59:03;4.85;;;1.50;;
26319;SDS011;14024;52.226;5.200;2024-03-02T11:01:53;7.15;;;1.73;;
26319;SDS011;14024;52.226;5.200;2024-03-02T11:04:25;6.43;;;1.60;;
26319;SDS011;14024;52.226;5.200;2024-03-02T11:07:00;5.18;;;2.05;;
26319;SDS011;14024;52.226;5.200;2024-03-02T11:09:30;4.05;;;1.40;;
26319;SDS011;14024;52.226;5.200;2024-03-02T11:12:00;5.68;;;1.80;;
26319;SDS011;14024;52.226;5.200;2024-03-02T11:14:29;8.20;;;1.40;;
26319;SDS011;14024;52.226;5.200;2024-03-02T11:17:00;7.97;;;1.40;;
26319;SDS011;14024;52.226;5.200;2024-03-02T11:19:28;6.25;;;1.38;;
26319;SDS011;14024;52.226;5.200;2024-03-02T11:21:54;5.05;;;1.60;;
26319;SDS011;14024;52.226;5.200;2024-03-02T11:26:50;5.25;;;1.42;;
26319;SDS011;14024;52.226;5.200;2024-03-02T11:32:14;5.93;;;1.48;;
26319;SDS011;14024;52.226;5.200;2024-03-02T11:34:46;9.07;;;1.60;;
26319;SDS011;14024;52.226;5.200;2024-03-02T11:37:14;12.85;;;1.58;;
26319;SDS011;14024;52.226;5.200;2024-03-02T11:39:42;8.45;;;1.65;;
26319;SDS011;14024;52.226;5.200;2024-03-02T11:42:08;8.13;;;1.42;;
26319;SDS011;14024;52.226;5.200;2024-03-02T11:44:39;4.30;;;1.63;;
26319;SDS011;14024;52.226;5.200;2024-03-02T11:47:06;4.55;;;1.27;;
26319;SDS011;14024;52.226;5.200;2024-03-02T11:52:13;3.78;;;1.20;;
26319;SDS011;14024;52.226;5.200;2024-03-02T11:54:41;3.75;;;1.15;;
26319;SDS011;14024;52.226;5.200;2024-03-02T11:57:20;4.63;;;1.20;;
26319;SDS011;14024;52.226;5.200;2024-03-02T11:59:49;5.03;;;1.10;;
26319;SDS011;14024;52.226;5.200;2024-03-02T12:02:16;3.53;;;1.10;;
26319;SDS011;14024;52.226;5.200;2024-03-02T12:04:43;5.05;;;1.20;;
26319;SDS011;14024;52.226;5.200;2024-03-02T12:07:12;3.15;;;1.30;;
26319;SDS011;14024;52.226;5.200;2024-03-02T12:09:44;3.80;;;1.45;;
26319;SDS011;14024;52.226;5.200;2024-03-02T12:12:10;2.47;;;1.30;;
26319;SDS011;14024;52.226;5.200;2024-03-02T12:14:36;7.20;;;1.20;;
26319;SDS011;14024;52.226;5.200;2024-03-02T12:17:03;3.28;;;1.10;;
26319;SDS011;14024;52.226;5.200;2024-03-02T12:19:30;3.97;;;1.13;;
26319;SDS011;14024;52.226;5.200;2024-03-02T12:21:59;3.10;;;1.17;;
26319;SDS011;14024;52.226;5.200;2024-03-02T12:24:28;7.82;;;1.65;;
26319;SDS011;14024;52.226;5.200;2024-03-02T12:26:55;4.28;;;1.10;;
26319;SDS011;14024;52.226;5.200;2024-03-02T12:29:20;1.92;;;1.02;;
26319;SDS011;14024;52.226;5.200;2024-03-02T12:31:49;4.35;;;1.15;;
26319;SDS011;14024;52.226;5.200;2024-03-02T12:34:16;7.22;;;1.50;;
26319;SDS011;14024;52.226;5.200;2024-03-02T12:36:42;4.20;;;1.25;;
26319;SDS011;14024;52.226;5.200;2024-03-02T12:39:08;4.68;;;1.40;;
26319;SDS011;14024;52.226;5.200;2024-03-02T12:41:36;6.88;;;1.42;;
26319;SDS011;14024;52.226;5.200;2024-03-02T12:44:05;5.57;;;1.40;;
26319;SDS011;14024;52.226;5.200;2024-03-02T12:46:31;2.72;;;1.15;;
26319;SDS011;14024;52.226;5.200;2024-03-02T12:48:57;4.47;;;1.15;;
26319;SDS011;14024;52.226;5.200;2024-03-02T12:51:22;4.03;;;1.17;;
26319;SDS011;14024;52.226;5.200;2024-03-02T12:53:55;6.38;;;1.30;;
26319;SDS011;14024;52.226;5.200;2024-03-02T12:56:21;3.88;;;1.38;;
26319;SDS011;14024;52.226;5.200;2024-03-02T12:58:47;3.20;;;1.40;;
26319;SDS011;14024;52.226;5.200;2024-03-02T13:01:14;3.70;;;1.98;;
26319;SDS011;14024;52.226;5.200;2024-03-02T13:03:40;5.50;;;1.50;;
26319;SDS011;14024;52.226;5.200;2024-03-02T13:06:06;7.70;;;1.80;;
26319;SDS011;14024;52.226;5.200;2024-03-02T13:08:32;6.20;;;1.58;;
26319;SDS011;14024;52.226;5.200;2024-03-02T13:10:58;2.25;;;1.30;;
26319;SDS011;14024;52.226;5.200;2024-03-02T13:13:24;3.75;;;1.20;;
26319;SDS011;14024;52.226;5.200;2024-03-02T13:15:49;4.07;;;1.33;;
26319;SDS011;14024;52.226;5.200;2024-03-02T13:18:14;5.10;;;1.25;;
26319;SDS011;14024;52.226;5.200;2024-03-02T13:20:43;7.15;;;1.70;;
26319;SDS011;14024;52.226;5.200;2024-03-02T13:23:08;4.53;;;1.55;;
26319;SDS011;14024;52.226;5.200;2024-03-02T13:25:33;3.53;;;1.27;;
26319;SDS011;14024;52.226;5.200;2024-03-02T13:27:59;3.70;;;1.20;;
26319;SDS011;14024;52.226;5.200;2024-03-02T13:30:25;5.43;;;0.98;;
26319;SDS011;14024;52.226;5.200;2024-03-02T13:32:50;4.85;;;1.50;;
26319;SDS011;14024;52.226;5.200;2024-03-02T13:35:16;4.55;;;1.15;;
26319;SDS011;14024;52.226;5.200;2024-03-02T13:37:41;5.60;;;1.42;;
26319;SDS011;14024;52.226;5.200;2024-03-02T13:40:06;4.68;;;1.48;;
26319;SDS011;14024;52.226;5.200;2024-03-02T13:42:38;5.47;;;1.33;;
26319;SDS011;14024;52.226;5.200;2024-03-02T13:45:04;4.25;;;1.60;;
26319;SDS011;14024;52.226;5.200;2024-03-02T13:47:30;3.97;;;1.38;;
26319;SDS011;14024;52.226;5.200;2024-03-02T13:49:57;3.22;;;1.25;;
26319;SDS011;14024;52.226;5.200;2024-03-02T13:52:22;9.85;;;1.85;;
26319;SDS011;14024;52.226;5.200;2024-03-02T13:54:48;7.00;;;1.75;;
26319;SDS011;14024;52.226;5.200;2024-03-02T13:57:13;3.70;;;1.17;;
26319;SDS011;14024;52.226;5.200;2024-03-02T13:59:39;2.80;;;1.70;;
26319;SDS011;14024;52.226;5.200;2024-03-02T14:02:06;6.72;;;1.83;;
26319;SDS011;14024;52.226;5.200;2024-03-02T14:04:32;6.18;;;1.67;;
26319;SDS011;14024;52.226;5.200;2024-03-02T14:06:59;7.70;;;1.80;;
26319;SDS011;14024;52.226;5.200;2024-03-02T14:09:24;4.20;;;1.50;;
26319;SDS011;14024;52.226;5.200;2024-03-02T14:11:50;4.75;;;1.30;;
26319;SDS011;14024;52.226;5.200;2024-03-02T14:14:19;2.92;;;1.60;;
26319;SDS011;14024;52.226;5.200;2024-03-02T14:16:45;4.00;;;1.30;;
26319;SDS011;14024;52.226;5.200;2024-03-02T14:19:11;4.45;;;1.45;;
26319;SDS011;14024;52.226;5.200;2024-03-02T14:21:37;6.05;;;1.42;;
26319;SDS011;14024;52.226;5.200;2024-03-02T14:24:05;4.13;;;1.85;;
26319;SDS011;14024;52.226;5.200;2024-03-02T14:26:35;10.05;;;2.15;;
26319;SDS011;14024;52.226;5.200;2024-03-02T14:29:03;6.68;;;2.13;;
26319;SDS011;14024;52.226;5.200;2024-03-02T14:31:29;7.43;;;2.10;;
26319;SDS011;14024;52.226;5.200;2024-03-02T14:33:54;4.18;;;2.03;;
26319;SDS011;14024;52.226;5.200;2024-03-02T14:36:20;3.97;;;1.70;;
26319;SDS011;14024;52.226;5.200;2024-03-02T14:38:45;6.43;;;2.25;;
26319;SDS011;14024;52.226;5.200;2024-03-02T14:41:11;5.88;;;1.90;;
26319;SDS011;14024;52.226;5.200;2024-03-02T14:43:37;5.25;;;1.83;;
26319;SDS011;14024;52.226;5.200;2024-03-02T14:46:03;6.50;;;1.63;;
26319;SDS011;14024;52.226;5.200;2024-03-02T14:48:28;6.53;;;1.85;;
26319;SDS011;14024;52.226;5.200;2024-03-02T14:50:54;4.18;;;1.70;;
26319;SDS011;14024;52.226;5.200;2024-03-02T14:53:20;4.22;;;1.67;;